sensor_id;sensor_type;location;lat;lon;timestamp;temperature;humidity
67722;SHT31;58309;45.292;11.820;2023-01-13T00:00:45;4.38;99.99
67722;SHT31;58309;45.292;11.820;2023-01-13T00:03:11;4.38;99.99
67722;SHT31;58309;45.292;11.820;2023-01-13T00:05:37;4.38;99.99
67722;SHT31;58309;45.292;11.820;2023-01-13T00:08:04;4.41;99.99
67722;SHT31;58309;45.292;11.820;2023-01-13T00:10:31;4.45;99.99
67722;SHT31;58309;45.292;11.820;2023-01-13T00:12:57;4.45;99.99
67722;SHT31;58309;45.292;11.820;2023-01-13T00:15:23;4.45;99.99
67722;SHT31;58309;45.292;11.820;2023-01-13T00:17:48;4.51;99.99
67722;SHT31;58309;45.292;11.820;2023-01-13T00:20:14;4.51;99.99
67722;SHT31;58309;45.292;11.820;2023-01-13T00:22:40;4.55;99.99
67722;SHT31;58309;45.292;11.820;2023-01-13T00:25:06;4.56;99.99
67722;SHT31;58309;45.292;11.820;2023-01-13T00:27:31;4.54;99.99
67722;SHT31;58309;45.292;11.820;2023-01-13T00:29:57;4.51;99.99
67722;SHT31;58309;45.292;11.820;2023-01-13T00:32:23;4.54;99.99
67722;SHT31;58309;45.292;11.820;2023-01-13T00:34:49;4.52;99.99
67722;SHT31;58309;45.292;11.820;2023-01-13T00:37:14;4.58;99.99
67722;SHT31;58309;45.292;11.820;2023-01-13T00:39:40;4.56;99.99
67722;SHT31;58309;45.292;11.820;2023-01-13T00:42:06;4.52;99.99
67722;SHT31;58309;45.292;11.820;2023-01-13T00:44:50;4.52;99.99
67722;SHT31;58309;45.292;11.820;2023-01-13T00:47:16;4.51;99.99
67722;SHT31;58309;45.292;11.820;2023-01-13T00:49:42;4.48;99.99
67722;SHT31;58309;45.292;11.820;2023-01-13T00:52:09;4.49;99.99
67722;SHT31;58309;45.292;11.820;2023-01-13T00:54:35;4.45;99.99
67722;SHT31;58309;45.292;11.820;2023-01-13T00:57:00;4.47;99.99
67722;SHT31;58309;45.292;11.820;2023-01-13T00:59:26;4.42;99.99
67722;SHT31;58309;45.292;11.820;2023-01-13T01:01:51;4.41;99.99
67722;SHT31;58309;45.292;11.820;2023-01-13T01:04:17;4.41;99.99
67722;SHT31;58309;45.292;11.820;2023-01-13T01:06:42;4.38;99.99
67722;SHT31;58309;45.292;11.820;2023-01-13T01:09:12;4.40;99.99
67722;SHT31;58309;45.292;11.820;2023-01-13T01:11:39;4.37;99.99
67722;SHT31;58309;45.292;11.820;2023-01-13T01:14:05;4.37;99.99
67722;SHT31;58309;45.292;11.820;2023-01-13T01:16:31;4.37;99.99
67722;SHT31;58309;45.292;11.820;2023-01-13T01:18:57;4.38;99.99
67722;SHT31;58309;45.292;11.820;2023-01-13T01:21:24;4.40;99.99
67722;SHT31;58309;45.292;11.820;2023-01-13T01:23:50;4.38;99.99
67722;SHT31;58309;45.292;11.820;2023-01-13T01:26:20;4.37;99.99
67722;SHT31;58309;45.292;11.820;2023-01-13T01:28:46;4.38;99.99
67722;SHT31;58309;45.292;11.820;2023-01-13T01:31:20;4.33;99.99
67722;SHT31;58309;45.292;11.820;2023-01-13T01:33:46;4.35;99.99
67722;SHT31;58309;45.292;11.820;2023-01-13T01:36:13;4.33;99.99
67722;SHT31;58309;45.292;11.820;2023-01-13T01:38:39;4.31;99.99
67722;SHT31;58309;45.292;11.820;2023-01-13T01:41:05;4.33;99.99
67722;SHT31;58309;45.292;11.820;2023-01-13T01:43:57;4.34;99.99
67722;SHT31;58309;45.292;11.820;2023-01-13T01:46:43;4.27;99.99
67722;SHT31;58309;45.292;11.820;2023-01-13T01:49:24;4.21;99.99
67722;SHT31;58309;45.292;11.820;2023-01-13T01:54:38;4.03;99.99
67722;SHT31;58309;45.292;11.820;2023-01-13T01:57:07;4.00;99.99
67722;SHT31;58309;45.292;11.820;2023-01-13T01:59:34;3.97;99.99
67722;SHT31;58309;45.292;11.820;2023-01-13T02:02:01;3.96;99.99
67722;SHT31;58309;45.292;11.820;2023-01-13T02:04:33;3.97;99.99
67722;SHT31;58309;45.292;11.820;2023-01-13T02:07:01;3.97;99.99
67722;SHT31;58309;45.292;11.820;2023-01-13T02:09:27;3.96;99.99
67722;SHT31;58309;45.292;11.820;2023-01-13T02:11:54;3.93;99.99
67722;SHT31;58309;45.292;11.820;2023-01-13T02:14:40;3.91;99.99
67722;SHT31;58309;45.292;11.820;2023-01-13T02:25:47;4.01;99.99
67722;SHT31;58309;45.292;11.820;2023-01-13T02:31:25;4.01;99.99
67722;SHT31;58309;45.292;11.820;2023-01-13T02:34:24;3.98;99.99
67722;SHT31;58309;45.292;11.820;2023-01-13T02:37:06;3.94;99.99
67722;SHT31;58309;45.292;11.820;2023-01-13T02:39:37;3.89;99.99
67722;SHT31;58309;45.292;11.820;2023-01-13T02:42:12;3.85;99.99
67722;SHT31;58309;45.292;11.820;2023-01-13T02:45:05;3.80;99.99
67722;SHT31;58309;45.292;11.820;2023-01-13T02:47:34;3.76;99.99
67722;SHT31;58309;45.292;11.820;2023-01-13T02:50:04;3.76;99.99
67722;SHT31;58309;45.292;11.820;2023-01-13T02:52:35;3.73;99.99
67722;SHT31;58309;45.292;11.820;2023-01-13T02:55:07;3.72;99.99
67722;SHT31;58309;45.292;11.820;2023-01-13T02:57:35;3.70;99.99
67722;SHT31;58309;45.292;11.820;2023-01-13T03:00:05;3.76;99.99
67722;SHT31;58309;45.292;11.820;2023-01-13T03:02:31;3.75;99.99
67722;SHT31;58309;45.292;11.820;2023-01-13T03:04:58;3.75;99.99
67722;SHT31;58309;45.292;11.820;2023-01-13T03:24:00;3.62;99.99
67722;SHT31;58309;45.292;11.820;2023-01-13T03:29:08;3.66;99.99
67722;SHT31;58309;45.292;11.820;2023-01-13T03:31:40;3.66;99.99
67722;SHT31;58309;45.292;11.820;2023-01-13T03:34:14;3.67;99.99
67722;SHT31;58309;45.292;11.820;2023-01-13T03:36:43;3.85;99.99
67722;SHT31;58309;45.292;11.820;2023-01-13T03:39:13;3.96;99.99
67722;SHT31;58309;45.292;11.820;2023-01-13T03:41:44;4.06;99.99
67722;SHT31;58309;45.292;11.820;2023-01-13T03:44:19;4.08;99.99
67722;SHT31;58309;45.292;11.820;2023-01-13T03:47:05;4.16;99.99
67722;SHT31;58309;45.292;11.820;2023-01-13T03:49:37;4.18;99.99
67722;SHT31;58309;45.292;11.820;2023-01-13T03:52:07;4.16;99.99
67722;SHT31;58309;45.292;11.820;2023-01-13T03:54:41;4.16;99.99
67722;SHT31;58309;45.292;11.820;2023-01-13T03:57:12;4.17;99.99
67722;SHT31;58309;45.292;11.820;2023-01-13T03:59:42;4.10;99.99
67722;SHT31;58309;45.292;11.820;2023-01-13T04:02:13;4.10;99.99
67722;SHT31;58309;45.292;11.820;2023-01-13T04:05:03;4.11;99.99
67722;SHT31;58309;45.292;11.820;2023-01-13T04:10:20;4.13;99.99
67722;SHT31;58309;45.292;11.820;2023-01-13T04:13:05;4.17;99.99
67722;SHT31;58309;45.292;11.820;2023-01-13T04:15:43;4.16;99.99
67722;SHT31;58309;45.292;11.820;2023-01-13T04:20:38;4.11;99.99
67722;SHT31;58309;45.292;11.820;2023-01-13T04:23:05;4.14;99.99
67722;SHT31;58309;45.292;11.820;2023-01-13T04:25:31;4.11;99.99
67722;SHT31;58309;45.292;11.820;2023-01-13T04:27:56;4.10;99.99
67722;SHT31;58309;45.292;11.820;2023-01-13T04:30:22;4.11;99.99
67722;SHT31;58309;45.292;11.820;2023-01-13T04:32:47;4.13;99.99
67722;SHT31;58309;45.292;11.820;2023-01-13T04:35:13;4.11;99.99
67722;SHT31;58309;45.292;11.820;2023-01-13T04:37:39;4.08;99.99
67722;SHT31;58309;45.292;11.820;2023-01-13T04:40:05;4.10;99.99
67722;SHT31;58309;45.292;11.820;2023-01-13T04:42:30;4.06;99.99
67722;SHT31;58309;45.292;11.820;2023-01-13T04:44:56;4.03;99.99
67722;SHT31;58309;45.292;11.820;2023-01-13T04:47:21;4.04;99.99
67722;SHT31;58309;45.292;11.820;2023-01-13T04:49:47;4.06;99.99
67722;SHT31;58309;45.292;11.820;2023-01-13T04:52:12;4.04;99.99
67722;SHT31;58309;45.292;11.820;2023-01-13T04:54:38;4.04;99.99
67722;SHT31;58309;45.292;11.820;2023-01-13T04:57:03;4.04;99.99
67722;SHT31;58309;45.292;11.820;2023-01-13T04:59:29;4.03;99.99
67722;SHT31;58309;45.292;11.820;2023-01-13T05:01:54;4.03;99.99
67722;SHT31;58309;45.292;11.820;2023-01-13T05:04:20;4.06;99.99
67722;SHT31;58309;45.292;11.820;2023-01-13T05:06:45;4.04;99.99
67722;SHT31;58309;45.292;11.820;2023-01-13T05:09:11;4.07;99.99
67722;SHT31;58309;45.292;11.820;2023-01-13T05:11:38;4.06;99.99
67722;SHT31;58309;45.292;11.820;2023-01-13T05:14:22;4.04;99.99
67722;SHT31;58309;45.292;11.820;2023-01-13T05:17:08;4.03;99.99
67722;SHT31;58309;45.292;11.820;2023-01-13T05:19:35;4.06;99.99
67722;SHT31;58309;45.292;11.820;2023-01-13T05:22:01;4.10;99.99
67722;SHT31;58309;45.292;11.820;2023-01-13T05:24:45;4.16;99.99
67722;SHT31;58309;45.292;11.820;2023-01-13T05:27:30;4.17;99.99
67722;SHT31;58309;45.292;11.820;2023-01-13T05:29:56;4.18;99.99
67722;SHT31;58309;45.292;11.820;2023-01-13T05:32:22;4.21;99.99
67722;SHT31;58309;45.292;11.820;2023-01-13T05:34:48;4.25;99.99
67722;SHT31;58309;45.292;11.820;2023-01-13T05:37:14;4.28;99.99
67722;SHT31;58309;45.292;11.820;2023-01-13T05:39:40;4.31;99.99
67722;SHT31;58309;45.292;11.820;2023-01-13T05:42:24;4.34;99.99
67722;SHT31;58309;45.292;11.820;2023-01-13T05:45:09;4.40;99.83
67722;SHT31;58309;45.292;11.820;2023-01-13T05:47:35;4.41;99.82
67722;SHT31;58309;45.292;11.820;2023-01-13T05:50:01;4.55;99.15
67722;SHT31;58309;45.292;11.820;2023-01-13T05:52:27;4.56;98.98
67722;SHT31;58309;45.292;11.820;2023-01-13T05:54:53;4.59;98.79
67722;SHT31;58309;45.292;11.820;2023-01-13T05:57:18;4.59;98.76
67722;SHT31;58309;45.292;11.820;2023-01-13T05:59:44;4.59;98.57
67722;SHT31;58309;45.292;11.820;2023-01-13T06:02:09;4.61;98.57
67722;SHT31;58309;45.292;11.820;2023-01-13T06:04:35;4.56;98.77
67722;SHT31;58309;45.292;11.820;2023-01-13T06:07:00;4.56;98.98
67722;SHT31;58309;45.292;11.820;2023-01-13T06:09:25;4.54;98.85
67722;SHT31;58309;45.292;11.820;2023-01-13T06:11:51;4.56;98.66
67722;SHT31;58309;45.292;11.820;2023-01-13T06:14:16;4.52;98.88
67722;SHT31;58309;45.292;11.820;2023-01-13T06:16:42;4.54;98.93
67722;SHT31;58309;45.292;11.820;2023-01-13T06:19:10;4.58;98.73
67722;SHT31;58309;45.292;11.820;2023-01-13T06:21:41;4.59;98.57
67722;SHT31;58309;45.292;11.820;2023-01-13T06:24:09;4.59;98.66
67722;SHT31;58309;45.292;11.820;2023-01-13T06:26:37;4.58;98.52
67722;SHT31;58309;45.292;11.820;2023-01-13T06:29:04;4.54;98.72
67722;SHT31;58309;45.292;11.820;2023-01-13T06:31:32;4.59;98.44
67722;SHT31;58309;45.292;11.820;2023-01-13T06:34:06;4.54;98.41
67722;SHT31;58309;45.292;11.820;2023-01-13T06:36:41;4.54;98.28
67722;SHT31;58309;45.292;11.820;2023-01-13T06:39:09;4.56;98.21
67722;SHT31;58309;45.292;11.820;2023-01-13T06:41:35;4.56;98.10
67722;SHT31;58309;45.292;11.820;2023-01-13T06:44:20;4.52;98.33
67722;SHT31;58309;45.292;11.820;2023-01-13T06:46:47;4.51;98.52
67722;SHT31;58309;45.292;11.820;2023-01-13T06:49:13;4.48;98.49
67722;SHT31;58309;45.292;11.820;2023-01-13T06:51:38;4.44;98.71
67722;SHT31;58309;45.292;11.820;2023-01-13T06:54:04;4.37;98.71
67722;SHT31;58309;45.292;11.820;2023-01-13T06:56:29;4.37;98.81
67722;SHT31;58309;45.292;11.820;2023-01-13T06:58:55;4.35;98.86
67722;SHT31;58309;45.292;11.820;2023-01-13T07:01:20;4.35;99.16
67722;SHT31;58309;45.292;11.820;2023-01-13T07:03:46;4.37;99.24
67722;SHT31;58309;45.292;11.820;2023-01-13T07:06:12;4.41;99.22
67722;SHT31;58309;45.292;11.820;2023-01-13T07:08:37;4.42;99.00
67722;SHT31;58309;45.292;11.820;2023-01-13T07:11:03;4.47;98.89
67722;SHT31;58309;45.292;11.820;2023-01-13T07:13:28;4.48;98.86
67722;SHT31;58309;45.292;11.820;2023-01-13T07:16:14;4.51;98.97
67722;SHT31;58309;45.292;11.820;2023-01-13T07:18:39;4.51;98.52
67722;SHT31;58309;45.292;11.820;2023-01-13T07:21:07;4.56;98.27
67722;SHT31;58309;45.292;11.820;2023-01-13T07:23:36;4.58;98.24
67722;SHT31;58309;45.292;11.820;2023-01-13T07:26:02;4.56;98.30
67722;SHT31;58309;45.292;11.820;2023-01-13T07:28:29;4.61;98.25
67722;SHT31;58309;45.292;11.820;2023-01-13T07:30:55;4.64;98.02
67722;SHT31;58309;45.292;11.820;2023-01-13T07:33:21;4.66;98.08
67722;SHT31;58309;45.292;11.820;2023-01-13T07:35:47;4.71;97.94
67722;SHT31;58309;45.292;11.820;2023-01-13T07:38:14;4.76;97.77
67722;SHT31;58309;45.292;11.820;2023-01-13T07:40:39;4.86;97.28
67722;SHT31;58309;45.292;11.820;2023-01-13T07:43:05;4.89;97.05
67722;SHT31;58309;45.292;11.820;2023-01-13T07:46:04;4.93;97.19
67722;SHT31;58309;45.292;11.820;2023-01-13T07:48:30;4.95;97.10
67722;SHT31;58309;45.292;11.820;2023-01-13T07:51:07;4.97;97.14
67722;SHT31;58309;45.292;11.820;2023-01-13T07:53:33;5.01;96.97
67722;SHT31;58309;45.292;11.820;2023-01-13T07:55:59;5.06;96.94
67722;SHT31;58309;45.292;11.820;2023-01-13T07:58:26;5.12;96.68
67722;SHT31;58309;45.292;11.820;2023-01-13T08:00:52;5.17;96.03
67722;SHT31;58309;45.292;11.820;2023-01-13T08:03:18;5.22;96.57
67722;SHT31;58309;45.292;11.820;2023-01-13T08:05:44;5.26;96.46
67722;SHT31;58309;45.292;11.820;2023-01-13T08:08:10;5.28;96.55
67722;SHT31;58309;45.292;11.820;2023-01-13T08:10:35;5.36;96.57
67722;SHT31;58309;45.292;11.820;2023-01-13T08:13:11;5.41;96.50
67722;SHT31;58309;45.292;11.820;2023-01-13T08:15:47;5.51;96.09
67722;SHT31;58309;45.292;11.820;2023-01-13T08:18:14;5.58;96.08
67722;SHT31;58309;45.292;11.820;2023-01-13T08:20:40;5.65;95.20
67722;SHT31;58309;45.292;11.820;2023-01-13T08:23:06;5.72;95.00
67722;SHT31;58309;45.292;11.820;2023-01-13T08:25:31;5.81;94.75
67722;SHT31;58309;45.292;11.820;2023-01-13T08:27:57;5.88;95.03
67722;SHT31;58309;45.292;11.820;2023-01-13T08:30:25;5.92;94.13
67722;SHT31;58309;45.292;11.820;2023-01-13T08:32:52;5.99;94.50
67722;SHT31;58309;45.292;11.820;2023-01-13T08:35:18;6.09;94.12
67722;SHT31;58309;45.292;11.820;2023-01-13T08:37:45;6.18;94.07
67722;SHT31;58309;45.292;11.820;2023-01-13T08:40:12;6.32;93.46
67722;SHT31;58309;45.292;11.820;2023-01-13T08:42:38;6.43;93.04
67722;SHT31;58309;45.292;11.820;2023-01-13T08:45:05;6.53;93.16
67722;SHT31;58309;45.292;11.820;2023-01-13T08:47:30;6.61;92.41
67722;SHT31;58309;45.292;11.820;2023-01-13T08:49:56;6.70;92.32
67722;SHT31;58309;45.292;11.820;2023-01-13T08:52:22;6.74;92.13
67722;SHT31;58309;45.292;11.820;2023-01-13T08:54:47;6.76;91.46
67722;SHT31;58309;45.292;11.820;2023-01-13T08:57:13;6.81;91.06
67722;SHT31;58309;45.292;11.820;2023-01-13T08:59:39;6.88;91.50
67722;SHT31;58309;45.292;11.820;2023-01-13T09:02:16;6.99;90.96
67722;SHT31;58309;45.292;11.820;2023-01-13T09:04:42;7.01;89.16
67722;SHT31;58309;45.292;11.820;2023-01-13T09:07:08;7.05;89.60
67722;SHT31;58309;45.292;11.820;2023-01-13T09:09:34;7.09;88.83
67722;SHT31;58309;45.292;11.820;2023-01-13T09:11:59;7.16;89.09
67722;SHT31;58309;45.292;11.820;2023-01-13T09:14:43;7.28;89.70
67722;SHT31;58309;45.292;11.820;2023-01-13T09:17:09;7.38;89.84
67722;SHT31;58309;45.292;11.820;2023-01-13T09:19:35;7.43;89.94
67722;SHT31;58309;45.292;11.820;2023-01-13T09:22:01;7.50;88.80
67722;SHT31;58309;45.292;11.820;2023-01-13T09:24:27;7.49;87.99
67722;SHT31;58309;45.292;11.820;2023-01-13T09:26:52;7.49;87.99
67722;SHT31;58309;45.292;11.820;2023-01-13T09:29:18;7.56;88.71
67722;SHT31;58309;45.292;11.820;2023-01-13T09:31:44;7.62;88.04
67722;SHT31;58309;45.292;11.820;2023-01-13T09:34:13;7.70;87.88
67722;SHT31;58309;45.292;11.820;2023-01-13T09:36:58;7.79;87.16
67722;SHT31;58309;45.292;11.820;2023-01-13T09:39:23;7.83;86.90
67722;SHT31;58309;45.292;11.820;2023-01-13T09:41:52;7.84;87.27
67722;SHT31;58309;45.292;11.820;2023-01-13T09:47:37;8.10;86.63
67722;SHT31;58309;45.292;11.820;2023-01-13T09:52:43;8.20;86.87
67722;SHT31;58309;45.292;11.820;2023-01-13T09:55:15;8.17;87.62
67722;SHT31;58309;45.292;11.820;2023-01-13T09:57:41;8.27;87.56
67722;SHT31;58309;45.292;11.820;2023-01-13T10:00:27;8.44;86.25
67722;SHT31;58309;45.292;11.820;2023-01-13T10:03:18;8.75;86.44
67722;SHT31;58309;45.292;11.820;2023-01-13T10:08:43;8.96;84.45
67722;SHT31;58309;45.292;11.820;2023-01-13T10:11:21;8.97;84.53
67722;SHT31;58309;45.292;11.820;2023-01-13T10:14:12;9.03;83.49
67722;SHT31;58309;45.292;11.820;2023-01-13T10:19:25;9.10;83.74
67722;SHT31;58309;45.292;11.820;2023-01-13T10:27:51;8.77;82.14
67722;SHT31;58309;45.292;11.820;2023-01-13T10:32:57;8.93;83.85
67722;SHT31;58309;45.292;11.820;2023-01-13T10:38:35;8.72;81.32
67722;SHT31;58309;45.292;11.820;2023-01-13T10:43:41;8.70;83.29
67722;SHT31;58309;45.292;11.820;2023-01-13T10:46:14;8.52;82.71
67722;SHT31;58309;45.292;11.820;2023-01-13T10:48:55;8.42;84.00
67722;SHT31;58309;45.292;11.820;2023-01-13T10:51:22;8.39;84.84
67722;SHT31;58309;45.292;11.820;2023-01-13T10:54:04;8.37;84.49
67722;SHT31;58309;45.292;11.820;2023-01-13T10:56:41;8.32;86.02
67722;SHT31;58309;45.292;11.820;2023-01-13T10:59:19;8.18;85.91
67722;SHT31;58309;45.292;11.820;2023-01-13T11:07:51;8.07;86.02
67722;SHT31;58309;45.292;11.820;2023-01-13T11:10:30;8.08;87.10
67722;SHT31;58309;45.292;11.820;2023-01-13T11:13:10;8.10;87.23
67722;SHT31;58309;45.292;11.820;2023-01-13T11:16:04;8.11;87.35
67722;SHT31;58309;45.292;11.820;2023-01-13T11:18:43;8.04;86.16
67722;SHT31;58309;45.292;11.820;2023-01-13T11:21:48;8.21;86.31
67722;SHT31;58309;45.292;11.820;2023-01-13T11:35:25;8.20;86.25
67722;SHT31;58309;45.292;11.820;2023-01-13T11:37:55;8.14;86.14
67722;SHT31;58309;45.292;11.820;2023-01-13T11:40:32;8.25;86.76
67722;SHT31;58309;45.292;11.820;2023-01-13T11:46:02;8.22;85.03
67722;SHT31;58309;45.292;11.820;2023-01-13T11:48:30;8.31;85.90
67722;SHT31;58309;45.292;11.820;2023-01-13T11:53:59;8.27;85.32
67722;SHT31;58309;45.292;11.820;2023-01-13T12:07:58;8.69;83.23
67722;SHT31;58309;45.292;11.820;2023-01-13T12:15:57;9.00;83.58
67722;SHT31;58309;45.292;11.820;2023-01-13T12:18:48;9.09;83.58
67722;SHT31;58309;45.292;11.820;2023-01-13T12:21:25;9.06;83.46
67722;SHT31;58309;45.292;11.820;2023-01-13T12:24:12;9.14;84.17
67722;SHT31;58309;45.292;11.820;2023-01-13T12:29:30;9.00;82.78
67722;SHT31;58309;45.292;11.820;2023-01-13T12:32:00;8.94;82.40
67722;SHT31;58309;45.292;11.820;2023-01-13T12:34:37;9.07;83.54
67722;SHT31;58309;45.292;11.820;2023-01-13T12:37:13;9.00;82.97
67722;SHT31;58309;45.292;11.820;2023-01-13T12:42:45;9.10;83.26
67722;SHT31;58309;45.292;11.820;2023-01-13T12:45:32;9.23;83.06
67722;SHT31;58309;45.292;11.820;2023-01-13T12:47:58;9.27;82.93
67722;SHT31;58309;45.292;11.820;2023-01-13T12:52:51;9.33;82.55
67722;SHT31;58309;45.292;11.820;2023-01-13T12:55:30;9.35;83.58
67722;SHT31;58309;45.292;11.820;2023-01-13T13:03:31;9.27;82.06
67722;SHT31;58309;45.292;11.820;2023-01-13T13:06:18;9.19;81.58
67722;SHT31;58309;45.292;11.820;2023-01-13T13:09:03;9.17;82.73
67722;SHT31;58309;45.292;11.820;2023-01-13T13:14:14;9.11;82.71
67722;SHT31;58309;45.292;11.820;2023-01-13T13:16:44;9.13;82.21
67722;SHT31;58309;45.292;11.820;2023-01-13T13:24:43;9.26;82.49
67722;SHT31;58309;45.292;11.820;2023-01-13T13:41:22;9.54;82.09
67722;SHT31;58309;45.292;11.820;2023-01-13T13:44:24;9.51;81.45
67722;SHT31;58309;45.292;11.820;2023-01-13T13:47:10;9.55;82.17
67722;SHT31;58309;45.292;11.820;2023-01-13T13:49:44;9.64;81.79
67722;SHT31;58309;45.292;11.820;2023-01-13T13:55:14;9.74;81.35
67722;SHT31;58309;45.292;11.820;2023-01-13T13:57:44;9.74;80.77
67722;SHT31;58309;45.292;11.820;2023-01-13T14:02:49;9.78;81.99
67722;SHT31;58309;45.292;11.820;2023-01-13T14:05:30;9.78;82.36
67722;SHT31;58309;45.292;11.820;2023-01-13T14:08:05;9.75;81.91
67722;SHT31;58309;45.292;11.820;2023-01-13T14:10:40;9.70;81.46
67722;SHT31;58309;45.292;11.820;2023-01-13T14:13:30;9.65;82.45
67722;SHT31;58309;45.292;11.820;2023-01-13T14:16:03;9.62;82.78
67722;SHT31;58309;45.292;11.820;2023-01-13T14:18:39;9.57;82.23
67722;SHT31;58309;45.292;11.820;2023-01-13T14:23:54;9.38;84.63
67722;SHT31;58309;45.292;11.820;2023-01-13T14:26:26;9.28;85.00
67722;SHT31;58309;45.292;11.820;2023-01-13T14:28:53;9.23;85.56
67722;SHT31;58309;45.292;11.820;2023-01-13T14:31:19;9.24;85.78
67722;SHT31;58309;45.292;11.820;2023-01-13T14:33:48;9.23;85.76
67722;SHT31;58309;45.292;11.820;2023-01-13T14:36:21;9.33;85.83
67722;SHT31;58309;45.292;11.820;2023-01-13T14:41:36;9.65;84.70
67722;SHT31;58309;45.292;11.820;2023-01-13T14:44:25;9.78;84.65
67722;SHT31;58309;45.292;11.820;2023-01-13T14:46:54;9.62;84.76
67722;SHT31;58309;45.292;11.820;2023-01-13T14:49:34;9.40;85.64
67722;SHT31;58309;45.292;11.820;2023-01-13T14:52:15;9.11;86.84
67722;SHT31;58309;45.292;11.820;2023-01-13T14:54:49;8.93;87.89
67722;SHT31;58309;45.292;11.820;2023-01-13T14:57:25;8.80;88.94
67722;SHT31;58309;45.292;11.820;2023-01-13T14:59:56;8.66;88.80
67722;SHT31;58309;45.292;11.820;2023-01-13T15:10:17;8.21;90.29
67722;SHT31;58309;45.292;11.820;2023-01-13T15:12:43;8.15;90.65
67722;SHT31;58309;45.292;11.820;2023-01-13T15:15:32;7.98;91.03
67722;SHT31;58309;45.292;11.820;2023-01-13T15:17:59;7.80;91.42
67722;SHT31;58309;45.292;11.820;2023-01-13T15:20:25;7.65;91.95
67722;SHT31;58309;45.292;11.820;2023-01-13T15:22:53;7.46;93.18
67722;SHT31;58309;45.292;11.820;2023-01-13T15:25:20;7.29;93.64
67722;SHT31;58309;45.292;11.820;2023-01-13T15:27:47;7.16;94.05
67722;SHT31;58309;45.292;11.820;2023-01-13T15:30:21;6.97;93.97
67722;SHT31;58309;45.292;11.820;2023-01-13T15:32:50;6.80;94.60
67722;SHT31;58309;45.292;11.820;2023-01-13T15:35:16;6.74;96.37
67722;SHT31;58309;45.292;11.820;2023-01-13T15:37:43;6.66;96.03
67722;SHT31;58309;45.292;11.820;2023-01-13T15:40:20;6.54;95.94
67722;SHT31;58309;45.292;11.820;2023-01-13T15:42:46;6.41;95.83
67722;SHT31;58309;45.292;11.820;2023-01-13T15:45:32;6.23;96.24
67722;SHT31;58309;45.292;11.820;2023-01-13T15:48:20;6.06;96.94
67722;SHT31;58309;45.292;11.820;2023-01-13T15:50:46;5.95;97.02
67722;SHT31;58309;45.292;11.820;2023-01-13T15:53:12;5.85;97.47
67722;SHT31;58309;45.292;11.820;2023-01-13T15:55:39;5.68;97.43
67722;SHT31;58309;45.292;11.820;2023-01-13T15:58:06;5.50;97.32
67722;SHT31;58309;45.292;11.820;2023-01-13T16:00:32;5.40;97.63
67722;SHT31;58309;45.292;11.820;2023-01-13T16:02:58;5.34;98.32
67722;SHT31;58309;45.292;11.820;2023-01-13T16:05:24;5.28;99.09
67722;SHT31;58309;45.292;11.820;2023-01-13T16:07:50;5.30;99.55
67722;SHT31;58309;45.292;11.820;2023-01-13T16:10:19;5.19;99.68
67722;SHT31;58309;45.292;11.820;2023-01-13T16:12:45;5.09;99.25
67722;SHT31;58309;45.292;11.820;2023-01-13T16:15:15;4.95;98.87
67722;SHT31;58309;45.292;11.820;2023-01-13T16:17:44;4.83;98.85
67722;SHT31;58309;45.292;11.820;2023-01-13T16:20:14;4.75;99.48
67722;SHT31;58309;45.292;11.820;2023-01-13T16:22:40;4.75;99.57
67722;SHT31;58309;45.292;11.820;2023-01-13T16:25:06;4.73;99.99
67722;SHT31;58309;45.292;11.820;2023-01-13T16:27:32;4.75;99.99
67722;SHT31;58309;45.292;11.820;2023-01-13T16:29:57;4.66;99.99
67722;SHT31;58309;45.292;11.820;2023-01-13T16:32:23;4.56;99.99
67722;SHT31;58309;45.292;11.820;2023-01-13T16:34:48;4.52;99.99
67722;SHT31;58309;45.292;11.820;2023-01-13T16:37:18;4.44;99.99
67722;SHT31;58309;45.292;11.820;2023-01-13T16:39:44;4.27;99.99
67722;SHT31;58309;45.292;11.820;2023-01-13T16:42:09;4.20;99.99
67722;SHT31;58309;45.292;11.820;2023-01-13T16:44:35;4.28;99.99
67722;SHT31;58309;45.292;11.820;2023-01-13T16:47:01;4.33;99.99
67722;SHT31;58309;45.292;11.820;2023-01-13T16:49:26;4.22;99.99
67722;SHT31;58309;45.292;11.820;2023-01-13T16:51:52;4.10;99.99
67722;SHT31;58309;45.292;11.820;2023-01-13T16:54:17;4.01;99.99
67722;SHT31;58309;45.292;11.820;2023-01-13T16:56:43;3.96;99.99
67722;SHT31;58309;45.292;11.820;2023-01-13T16:59:11;3.85;99.99
67722;SHT31;58309;45.292;11.820;2023-01-13T17:01:40;3.80;99.99
67722;SHT31;58309;45.292;11.820;2023-01-13T17:04:06;3.76;99.99
67722;SHT31;58309;45.292;11.820;2023-01-13T17:07:03;3.70;99.99
67722;SHT31;58309;45.292;11.820;2023-01-13T17:09:30;3.91;99.99
67722;SHT31;58309;45.292;11.820;2023-01-13T17:11:56;4.03;99.99
67722;SHT31;58309;45.292;11.820;2023-01-13T17:14:22;3.96;99.99
67722;SHT31;58309;45.292;11.820;2023-01-13T17:16:55;3.87;99.99
67722;SHT31;58309;45.292;11.820;2023-01-13T17:19:21;3.86;99.99
67722;SHT31;58309;45.292;11.820;2023-01-13T17:21:47;3.97;99.99
67722;SHT31;58309;45.292;11.820;2023-01-13T17:24:15;3.98;99.99
67722;SHT31;58309;45.292;11.820;2023-01-13T17:26:47;3.89;99.99
67722;SHT31;58309;45.292;11.820;2023-01-13T17:31:43;3.82;99.99
67722;SHT31;58309;45.292;11.820;2023-01-13T17:34:10;3.77;99.99
67722;SHT31;58309;45.292;11.820;2023-01-13T17:36:36;3.77;99.99
67722;SHT31;58309;45.292;11.820;2023-01-13T17:39:02;3.82;99.99
67722;SHT31;58309;45.292;11.820;2023-01-13T17:41:28;3.73;99.99
67722;SHT31;58309;45.292;11.820;2023-01-13T17:43:53;3.67;99.99
67722;SHT31;58309;45.292;11.820;2023-01-13T17:46:19;3.75;99.99
67722;SHT31;58309;45.292;11.820;2023-01-13T17:48:48;3.80;99.99
67722;SHT31;58309;45.292;11.820;2023-01-13T17:51:15;3.79;99.99
67722;SHT31;58309;45.292;11.820;2023-01-13T17:53:41;3.70;99.99
67722;SHT31;58309;45.292;11.820;2023-01-13T17:56:09;3.63;99.99
67722;SHT31;58309;45.292;11.820;2023-01-13T17:58:35;3.63;99.99
67722;SHT31;58309;45.292;11.820;2023-01-13T18:01:09;3.83;99.99
67722;SHT31;58309;45.292;11.820;2023-01-13T18:03:37;3.76;99.99
67722;SHT31;58309;45.292;11.820;2023-01-13T18:06:27;3.70;99.99
67722;SHT31;58309;45.292;11.820;2023-01-13T18:08:57;3.73;99.99
67722;SHT31;58309;45.292;11.820;2023-01-13T18:11:23;3.80;99.99
67722;SHT31;58309;45.292;11.820;2023-01-13T18:13:50;3.66;99.99
67722;SHT31;58309;45.292;11.820;2023-01-13T18:16:19;3.56;99.99
67722;SHT31;58309;45.292;11.820;2023-01-13T18:18:47;3.40;99.99
67722;SHT31;58309;45.292;11.820;2023-01-13T18:21:19;3.34;99.99
67722;SHT31;58309;45.292;11.820;2023-01-13T18:24:04;3.32;99.99
67722;SHT31;58309;45.292;11.820;2023-01-13T18:26:48;3.34;99.99
67722;SHT31;58309;45.292;11.820;2023-01-13T18:29:40;3.24;99.99
67722;SHT31;58309;45.292;11.820;2023-01-13T18:32:06;3.25;99.99